Time;durP1;ratioP1;P1;durP2;ratioP2;P2;SDS_P1;SDS_P2;PMS_P1;PMS_P2;Temp;Humidity;BMP_temperature;BMP_pressure;BME280_temperature;BME280_humidity;BME280_pressure;Samples;Min_cycle;Max_cycle;Signal;HPM_P1;HPM_P2
2021/05/12 00:00:56;;;;;;;6.70;5.18;;;13.30;85.20;;;;;;5072450;28;20060;-73
2021/05/12 00:03:23;;;;;;;6.82;5.25;;;13.30;85.20;;;;;;5073135;28;20118;-74
2021/05/12 00:05:50;;;;;;;7.95;5.68;;;13.30;85.30;;;;;;5074058;28;20049;-73
2021/05/12 00:08:17;;;;;;;6.95;4.82;;;13.30;85.40;;;;;;5074221;28;20538;-73
2021/05/12 00:10:44;;;;;;;9.05;5.47;;;13.20;85.40;;;;;;5073152;28;20037;-73
2021/05/12 00:13:11;;;;;;;8.68;5.65;;;13.20;85.50;;;;;;5072469;28;20385;-73
2021/05/12 00:15:38;;;;;;;8.55;6.68;;;13.10;85.50;;;;;;5052582;28;20045;-73
2021/05/12 00:18:11;;;;;;;6.75;4.78;;;13.10;85.60;;;;;;5067081;28;20102;-73
2021/05/12 00:20:39;;;;;;;7.53;5.68;;;13.10;85.70;;;;;;5072818;28;20044;-73
2021/05/12 00:23:10;;;;;;;6.65;4.93;;;13.00;85.80;;;;;;5072956;28;20045;-73
2021/05/12 00:25:44;;;;;;;6.65;4.82;;;13.00;85.90;;;;;;5073113;28;20064;-73
2021/05/12 00:28:13;;;;;;;7.10;5.25;;;13.00;85.90;;;;;;5072122;28;20052;-72
2021/05/12 00:30:40;;;;;;;10.45;7.20;;;12.90;86.00;;;;;;5073130;28;20040;-73
2021/05/12 00:33:08;;;;;;;9.27;5.85;;;12.90;86.10;;;;;;5051761;28;20092;-72
2021/05/12 00:35:35;;;;;;;9.00;6.03;;;12.90;86.10;;;;;;5070786;28;20057;-72
2021/05/12 00:38:04;;;;;;;6.97;4.75;;;12.90;86.10;;;;;;5072450;28;20111;-72
2021/05/12 00:40:33;;;;;;;7.05;5.05;;;12.80;86.20;;;;;;5072722;28;20583;-72
2021/05/12 00:43:01;;;;;;;5.25;4.13;;;12.80;86.90;;;;;;5073316;28;20132;-72
2021/05/12 00:45:28;;;;;;;5.22;3.90;;;12.80;86.30;;;;;;5056723;28;20045;-72
2021/05/12 00:47:55;;;;;;;10.52;5.70;;;12.80;86.40;;;;;;5071325;28;20044;-72
2021/05/12 00:50:23;;;;;;;8.40;5.90;;;12.80;86.60;;;;;;5059697;28;20040;-72
2021/05/12 00:52:51;;;;;;;9.07;6.20;;;12.80;86.60;;;;;;5078379;28;20048;-72
2021/05/12 00:55:20;;;;;;;7.43;5.45;;;12.70;86.50;;;;;;5073125;28;20492;-72
2021/05/12 00:57:48;;;;;;;9.95;5.88;;;12.70;86.50;;;;;;5072437;28;20060;-72
2021/05/12 01:00:18;;;;;;;8.98;5.05;;;12.70;86.60;;;;;;5072461;28;20102;-72
2021/05/12 01:02:45;;;;;;;7.22;4.70;;;12.70;86.50;;;;;;5068741;28;20054;-72
2021/05/12 01:05:20;;;;;;;6.70;4.35;;;12.70;86.50;;;;;;5069961;28;20064;-72
2021/05/12 01:07:47;;;;;;;6.15;4.28;;;12.70;86.50;;;;;;5066832;28;20040;-72
2021/05/12 01:10:14;;;;;;;6.05;4.18;;;12.60;86.40;;;;;;5063168;28;20032;-72
2021/05/12 01:12:41;;;;;;;5.28;3.42;;;12.60;86.40;;;;;;5070657;28;20071;-72
2021/05/12 01:15:09;;;;;;;5.65;4.03;;;12.60;86.50;;;;;;5072619;28;20123;-72
2021/05/12 01:17:36;;;;;;;5.63;3.10;;;12.60;86.60;;;;;;5078799;28;20048;-72
2021/05/12 01:20:03;;;;;;;4.80;3.10;;;12.60;86.60;;;;;;5055609;28;20107;-71
2021/05/12 01:22:30;;;;;;;6.82;3.47;;;12.50;86.50;;;;;;5064232;28;20052;-72
2021/05/12 01:24:57;;;;;;;6.00;3.60;;;12.50;86.60;;;;;;5084840;28;20048;-72
2021/05/12 01:27:24;;;;;;;5.32;3.55;;;12.50;86.60;;;;;;5071745;28;20098;-71
2021/05/12 01:29:51;;;;;;;5.93;3.08;;;12.50;86.60;;;;;;5070453;28;20053;-71
2021/05/12 01:32:20;;;;;;;5.13;3.28;;;12.50;86.60;;;;;;5075238;28;20127;-72
2021/05/12 01:34:47;;;;;;;4.90;2.60;;;12.50;86.50;;;;;;5037710;28;20090;-72
2021/05/12 01:37:14;;;;;;;4.88;2.50;;;12.50;86.50;;;;;;5071404;28;20044;-73
2021/05/12 01:39:42;;;;;;;3.88;2.35;;;12.50;86.40;;;;;;5052849;28;20059;-72
2021/05/12 01:42:09;;;;;;;5.85;3.38;;;12.40;86.40;;;;;;5072795;28;20041;-72
2021/05/12 01:44:36;;;;;;;4.38;2.70;;;12.40;86.40;;;;;;5071246;28;20100;-72
2021/05/12 01:47:03;;;;;;;4.28;2.42;;;12.30;86.40;;;;;;5072335;28;20048;-73
2021/05/12 01:49:31;;;;;;;5.18;2.97;;;12.30;86.50;;;;;;5070718;28;20049;-72
2021/05/12 01:51:59;;;;;;;4.18;2.72;;;12.30;86.50;;;;;;5054387;28;20468;-72
2021/05/12 01:54:26;;;;;;;6.60;3.10;;;12.30;86.60;;;;;;5051025;28;20041;-72
2021/05/12 01:56:53;;;;;;;7.15;3.53;;;12.20;86.50;;;;;;5069996;28;20487;-72
2021/05/12 01:59:22;;;;;;;4.60;3.03;;;12.20;86.60;;;;;;5050768;28;20428;-72
2021/05/12 02:01:49;;;;;;;5.05;3.40;;;12.20;86.60;;;;;;5070158;28;20048;-73
2021/05/12 02:04:16;;;;;;;5.28;2.45;;;12.10;86.60;;;;;;5070953;28;20052;-72
2021/05/12 02:06:43;;;;;;;4.40;2.92;;;12.10;86.60;;;;;;5053743;28;20040;-73
2021/05/12 02:09:13;;;;;;;4.93;3.15;;;12.10;86.70;;;;;;5053959;28;20048;-74
2021/05/12 02:11:40;;;;;;;5.65;3.05;;;12.00;86.70;;;;;;5070806;28;20090;-72
2021/05/12 02:14:07;;;;;;;6.43;3.70;;;12.00;86.60;;;;;;5070720;28;20050;-73
2021/05/12 02:16:36;;;;;;;4.10;2.45;;;12.00;86.60;;;;;;5070117;28;20094;-72
2021/05/12 02:19:03;;;;;;;5.50;3.15;;;12.00;86.60;;;;;;5070381;28;20037;-72
2021/05/12 02:21:30;;;;;;;5.55;3.22;;;11.90;86.50;;;;;;5069713;28;20102;-73
2021/05/12 02:23:57;;;;;;;4.80;2.90;;;11.90;86.50;;;;;;5072045;28;20373;-72
2021/05/12 02:26:24;;;;;;;4.72;2.90;;;11.90;86.50;;;;;;5040877;28;20044;-73
2021/05/12 02:28:51;;;;;;;6.93;3.17;;;11.90;86.50;;;;;;5073502;28;20043;-72
2021/05/12 02:31:18;;;;;;;4.80;3.28;;;11.90;86.40;;;;;;5073629;28;20094;-72
2021/05/12 02:33:45;;;;;;;6.93;3.35;;;11.90;86.30;;;;;;5074591;28;20043;-72
2021/05/12 02:36:12;;;;;;;6.07;3.75;;;11.90;86.30;;;;;;5075122;28;20377;-72
2021/05/12 02:38:39;;;;;;;4.88;3.08;;;12.00;86.30;;;;;;5072840;28;20028;-72
2021/05/12 02:41:07;;;;;;;6.22;3.78;;;12.00;86.20;;;;;;5074692;28;20492;-72
2021/05/12 02:43:34;;;;;;;5.47;3.47;;;12.00;86.10;;;;;;5075098;28;20086;-72
2021/05/12 02:46:01;;;;;;;5.90;3.70;;;12.00;86.00;;;;;;5073398;28;20488;-73
2021/05/12 02:48:28;;;;;;;6.78;4.28;;;12.10;86.00;;;;;;5072436;28;20112;-72
2021/05/12 02:50:55;;;;;;;6.25;3.97;;;12.10;86.00;;;;;;5056799;28;20068;-72
2021/05/12 02:53:22;;;;;;;5.90;3.40;;;12.20;86.00;;;;;;5073819;28;20040;-72
2021/05/12 02:55:50;;;;;;;6.35;4.43;;;12.20;86.00;;;;;;5073124;28;20047;-72
2021/05/12 02:58:17;;;;;;;6.85;3.83;;;12.20;85.90;;;;;;5073997;28;20048;-72
2021/05/12 03:00:44;;;;;;;6.57;3.88;;;12.20;85.90;;;;;;5072931;28;20435;-72
2021/05/12 03:03:11;;;;;;;7.05;3.97;;;12.20;85.90;;;;;;5074124;28;20653;-71
2021/05/12 03:05:39;;;;;;;5.47;3.33;;;12.20;85.90;;;;;;5072823;28;20049;-72
2021/05/12 03:08:08;;;;;;;6.50;4.13;;;12.20;85.90;;;;;;5073026;28;20095;-71
2021/05/12 03:10:35;;;;;;;7.15;4.53;;;12.20;85.80;;;;;;5072766;28;20482;-72
2021/05/12 03:13:05;;;;;;;7.63;4.63;;;12.20;85.70;;;;;;5071518;28;20064;-72
2021/05/12 03:15:32;;;;;;;7.28;4.53;;;12.10;85.70;;;;;;5073030;28;20033;-72
2021/05/12 03:18:00;;;;;;;8.68;5.28;;;12.10;85.70;;;;;;5072651;28;20540;-72
2021/05/12 03:20:28;;;;;;;7.60;4.65;;;12.00;85.70;;;;;;5074011;28;20043;-72
2021/05/12 03:22:56;;;;;;;9.30;4.95;;;12.00;85.90;;;;;;5072640;28;20067;-72
2021/05/12 03:25:24;;;;;;;7.65;4.53;;;12.00;86.00;;;;;;5074433;28;20044;-72
2021/05/12 03:27:51;;;;;;;8.73;5.20;;;11.90;86.00;;;;;;5073117;28;20036;-73
2021/05/12 03:30:31;;;;;;;7.10;4.30;;;11.90;86.00;;;;;;5071791;28;20052;-72
2021/05/12 03:33:00;;;;;;;8.63;4.82;;;11.80;86.00;;;;;;5074309;28;20048;-72
2021/05/12 03:35:27;;;;;;;7.45;4.82;;;11.80;86.10;;;;;;5072626;28;20447;-72
2021/05/12 03:37:58;;;;;;;6.95;4.28;;;11.70;86.10;;;;;;5072931;28;20040;-72
2021/05/12 03:40:27;;;;;;;7.20;3.85;;;11.70;86.80;;;;;;5073738;28;20396;-72
2021/05/12 03:42:56;;;;;;;7.10;4.45;;;11.60;86.30;;;;;;5073072;28;20442;-72
2021/05/12 03:45:23;;;;;;;7.07;4.40;;;11.60;86.30;;;;;;5073239;28;20066;-72
2021/05/12 03:47:51;;;;;;;7.13;4.03;;;11.60;86.30;;;;;;5072731;28;20127;-72
2021/05/12 03:50:20;;;;;;;5.68;3.05;;;11.60;86.50;;;;;;5072244;28;20042;-72
2021/05/12 03:52:47;;;;;;;6.68;3.53;;;11.60;86.50;;;;;;5073828;28;20051;-72
2021/05/12 03:55:15;;;;;;;6.13;3.90;;;11.50;86.50;;;;;;5072620;28;20044;-72
2021/05/12 03:57:43;;;;;;;6.18;3.30;;;11.50;86.60;;;;;;5072514;28;20037;-72
2021/05/12 04:00:12;;;;;;;8.20;4.63;;;11.50;86.70;;;;;;5073559;28;20028;-73
2021/05/12 04:02:42;;;;;;;8.50;5.40;;;11.40;87.30;;;;;;5072671;28;20785;-73
2021/05/12 04:05:12;;;;;;;8.88;5.28;;;11.40;86.70;;;;;;5054866;28;20602;-72
2021/05/12 04:07:40;;;;;;;6.93;4.40;;;11.40;86.70;;;;;;5073409;28;20041;-72
2021/05/12 04:10:08;;;;;;;7.97;5.00;;;11.40;86.80;;;;;;5072532;28;20098;-73
2021/05/12 04:12:36;;;;;;;8.85;5.20;;;11.40;86.80;;;;;;5072375;28;20511;-72
2021/05/12 04:15:06;;;;;;;7.80;5.68;;;11.40;86.80;;;;;;5074140;28;20044;-72
2021/05/12 04:17:33;;;;;;;11.40;6.82;;;11.30;86.80;;;;;;5070959;28;20040;-72
2021/05/12 04:20:00;;;;;;;12.15;6.63;;;11.30;86.80;;;;;;5072372;28;20041;-72
2021/05/12 04:22:27;;;;;;;8.52;5.55;;;11.40;86.90;;;;;;5071712;28;20036;-72
2021/05/12 04:24:54;;;;;;;8.82;5.35;;;11.30;86.80;;;;;;5072946;28;20048;-72
2021/05/12 04:27:21;;;;;;;8.95;5.05;;;11.40;86.80;;;;;;5073023;28;20048;-72
2021/05/12 04:29:48;;;;;;;8.00;5.05;;;11.40;87.40;;;;;;5058528;28;20040;-72
2021/05/12 04:32:16;;;;;;;6.78;4.70;;;11.50;86.70;;;;;;5073232;28;20048;-72
2021/05/12 04:34:43;;;;;;;7.65;4.88;;;11.50;86.70;;;;;;5072013;28;20498;-72
2021/05/12 04:37:09;;;;;;;7.85;3.80;;;11.50;86.70;;;;;;5018781;28;20064;-72
2021/05/12 04:39:37;;;;;;;8.85;4.20;;;11.50;86.70;;;;;;5087004;28;20122;-72
2021/05/12 04:42:04;;;;;;;7.22;4.68;;;11.50;86.70;;;;;;5081718;28;20040;-72
2021/05/12 04:44:31;;;;;;;7.40;4.95;;;11.50;86.80;;;;;;5087193;28;20373;-72
2021/05/12 04:46:58;;;;;;;7.72;5.07;;;11.50;86.80;;;;;;5071508;28;20102;-72
2021/05/12 04:49:25;;;;;;;6.60;4.13;;;11.50;86.80;;;;;;5071466;28;20040;-72
2021/05/12 04:51:52;;;;;;;6.90;4.18;;;11.50;86.80;;;;;;5070683;28;20093;-72
2021/05/12 04:54:20;;;;;;;6.20;4.00;;;11.40;86.70;;;;;;5068367;28;20043;-73
2021/05/12 04:56:47;;;;;;;6.45;4.00;;;11.50;86.80;;;;;;5070424;28;20119;-72
2021/05/12 04:59:15;;;;;;;7.05;3.67;;;11.50;86.90;;;;;;5071056;28;20488;-72
2021/05/12 05:01:42;;;;;;;6.82;4.13;;;11.50;86.90;;;;;;5072250;28;20110;-72
2021/05/12 05:04:12;;;;;;;6.32;4.07;;;11.50;86.80;;;;;;5071392;28;20053;-72
2021/05/12 05:06:39;;;;;;;7.82;3.90;;;11.50;86.70;;;;;;5053844;28;20151;-72
2021/05/12 05:09:07;;;;;;;8.23;4.57;;;11.60;86.70;;;;;;5070675;28;20052;-72
2021/05/12 05:11:34;;;;;;;4.70;3.20;;;11.60;86.50;;;;;;5071335;28;20041;-72
2021/05/12 05:14:02;;;;;;;6.65;3.90;;;11.70;86.40;;;;;;5050300;28;20053;-73
2021/05/12 05:16:29;;;;;;;6.22;3.95;;;11.70;86.40;;;;;;5070632;28;20392;-73
2021/05/12 05:18:56;;;;;;;8.88;4.82;;;11.80;86.30;;;;;;5053706;28;20407;-72
2021/05/12 05:21:23;;;;;;;6.05;3.65;;;11.80;86.30;;;;;;5072152;28;20090;-72
2021/05/12 05:23:50;;;;;;;6.53;4.13;;;11.80;86.20;;;;;;5076299;28;20040;-72
2021/05/12 05:26:17;;;;;;;6.10;4.07;;;11.90;86.10;;;;;;5073006;28;20032;-72
2021/05/12 05:28:44;;;;;;;6.07;3.63;;;12.00;86.00;;;;;;5071976;28;20066;-72
2021/05/12 05:31:11;;;;;;;6.65;3.92;;;12.00;85.80;;;;;;5072897;28;20040;-73
2021/05/12 05:33:56;;;;;;;6.82;4.25;;;12.10;86.30;;;;;;5071262;28;20062;-73
2021/05/12 05:36:42;;;;;;;7.43;4.93;;;12.10;85.60;;;;;;5068433;28;20114;-72
2021/05/12 05:39:35;;;;;;;8.25;5.38;;;12.20;85.50;;;;;;5047941;28;20048;-73
2021/05/12 05:42:21;;;;;;;8.27;5.93;;;12.20;85.30;;;;;;5063984;28;20063;-73
2021/05/12 05:45:07;;;;;;;9.38;5.80;;;12.30;85.20;;;;;;5065878;28;20149;-73
2021/05/12 05:47:53;;;;;;;9.50;4.75;;;12.30;85.10;;;;;;5061152;28;20114;-73
2021/05/12 05:50:40;;;;;;;14.48;8.43;;;12.40;84.90;;;;;;5072375;28;20140;-73
2021/05/12 05:53:25;;;;;;;13.07;9.45;;;12.50;84.90;;;;;;5071949;28;20060;-73
2021/05/12 05:56:12;;;;;;;11.60;7.72;;;12.50;84.70;;;;;;5065291;28;20722;-73
2021/05/12 05:58:57;;;;;;;13.52;8.23;;;12.60;84.70;;;;;;5060432;28;20121;-72
2021/05/12 06:01:43;;;;;;;13.43;7.88;;;12.60;84.50;;;;;;5071582;28;20056;-72
2021/05/12 06:04:10;;;;;;;12.25;7.18;;;12.70;84.40;;;;;;5073802;28;20048;-71
2021/05/12 06:06:56;;;;;;;12.48;8.25;;;12.70;84.30;;;;;;5074800;28;20048;-71
2021/05/12 06:09:41;;;;;;;16.17;9.77;;;12.80;84.20;;;;;;5066652;28;20178;-73
2021/05/12 06:12:27;;;;;;;17.73;11.73;;;12.90;84.00;;;;;;5062901;28;20090;-74
2021/05/12 06:15:26;;;;;;;15.32;9.75;;;12.90;84.00;;;;;;5043894;28;20595;-73
2021/05/12 06:18:12;;;;;;;15.35;9.75;;;13.00;84.00;;;;;;5056256;28;20182;-73
2021/05/12 06:20:58;;;;;;;13.80;9.52;;;13.00;83.80;;;;;;5057623;28;20189;-73
2021/05/12 06:23:45;;;;;;;14.27;8.80;;;13.10;83.70;;;;;;5064062;28;20053;-73
2021/05/12 06:26:30;;;;;;;12.50;8.90;;;13.20;83.60;;;;;;5075622;28;20055;-73
2021/05/12 06:29:16;;;;;;;9.73;6.85;;;13.30;83.40;;;;;;5071860;28;20040;-72
2021/05/12 06:32:01;;;;;;;9.60;6.47;;;13.40;83.30;;;;;;5069820;28;20055;-72
2021/05/12 06:34:47;;;;;;;11.05;7.47;;;13.60;83.20;;;;;;5073552;28;20059;-73
2021/05/12 06:37:32;;;;;;;10.88;6.65;;;13.60;82.90;;;;;;5069924;28;20048;-74
2021/05/12 06:40:18;;;;;;;9.25;6.00;;;13.70;82.80;;;;;;5069977;28;20067;-74
2021/05/12 06:42:46;;;;;;;8.80;5.50;;;13.80;82.70;;;;;;5087855;28;20140;-71
2021/05/12 06:45:13;;;;;;;12.77;6.70;;;13.90;82.40;;;;;;5072981;28;20419;-72
2021/05/12 06:47:41;;;;;;;7.95;4.93;;;13.90;81.20;;;;;;5073592;28;20036;-71
2021/05/12 06:50:22;;;;;;;14.63;6.50;;;13.90;80.80;;;;;;5073813;28;20045;-71
2021/05/12 06:52:57;;;;;;;10.32;5.90;;;14.00;80.30;;;;;;5074509;28;20540;-71
2021/05/12 06:55:25;;;;;;;9.95;5.25;;;14.00;79.70;;;;;;5060383;28;20044;-71
2021/05/12 06:57:52;;;;;;;8.50;3.75;;;14.00;79.70;;;;;;5039660;28;20028;-71
2021/05/12 07:00:21;;;;;;;9.73;3.53;;;14.10;79.70;;;;;;5070363;28;20554;-71
2021/05/12 07:02:51;;;;;;;6.68;3.22;;;14.20;79.60;;;;;;5071288;28;20496;-71
2021/05/12 07:05:21;;;;;;;11.45;5.28;;;14.30;79.20;;;;;;5071949;28;20067;-72
2021/05/12 07:07:48;;;;;;;8.43;4.28;;;14.30;78.40;;;;;;5072815;28;20044;-71
2021/05/12 07:10:16;;;;;;;9.57;3.90;;;14.40;78.30;;;;;;5071065;28;20087;-71
2021/05/12 07:12:43;;;;;;;7.63;3.47;;;14.40;78.20;;;;;;5073805;28;20102;-71
2021/05/12 07:15:12;;;;;;;9.57;4.55;;;14.50;77.70;;;;;;5072812;28;20068;-71
2021/05/12 07:17:40;;;;;;;7.68;3.63;;;14.60;77.40;;;;;;5072897;28;20511;-71
2021/05/12 07:20:08;;;;;;;5.93;2.85;;;14.60;77.60;;;;;;5074058;28;20040;-71
2021/05/12 07:22:35;;;;;;;7.05;3.78;;;14.70;77.40;;;;;;5072947;28;20036;-71
2021/05/12 07:25:03;;;;;;;5.40;2.63;;;14.80;77.30;;;;;;5055889;28;20048;-72
2021/05/12 07:27:30;;;;;;;9.07;4.00;;;14.90;77.00;;;;;;5073729;28;20044;-72
2021/05/12 07:29:57;;;;;;;8.65;2.92;;;15.00;76.20;;;;;;5076542;28;20052;-72
2021/05/12 07:32:24;;;;;;;5.07;2.97;;;15.10;76.20;;;;;;5076175;28;20098;-74
2021/05/12 07:34:52;;;;;;;5.28;2.53;;;15.20;76.10;;;;;;5073913;28;20373;-74
2021/05/12 07:37:22;;;;;;;7.20;2.83;;;15.30;75.40;;;;;;5074496;28;20033;-74
2021/05/12 07:39:49;;;;;;;8.43;3.42;;;15.30;74.90;;;;;;5073826;28;20063;-74
2021/05/12 07:42:19;;;;;;;5.05;2.25;;;15.40;74.50;;;;;;5067689;28;20033;-74
2021/05/12 07:44:48;;;;;;;4.45;2.10;;;15.40;74.90;;;;;;5073547;28;20040;-73
2021/05/12 07:47:16;;;;;;;5.32;2.03;;;15.50;74.90;;;;;;5074803;28;20082;-73
2021/05/12 07:49:44;;;;;;;6.70;2.00;;;15.60;74.80;;;;;;5073021;28;20047;-73
2021/05/12 07:52:15;;;;;;;5.43;2.22;;;15.60;74.50;;;;;;5056686;28;20044;-73
2021/05/12 07:54:43;;;;;;;5.53;2.05;;;15.70;74.50;;;;;;5073109;28;20052;-72
2021/05/12 07:57:11;;;;;;;7.97;2.15;;;15.80;74.20;;;;;;5062029;28;20047;-73
2021/05/12 07:59:38;;;;;;;5.97;2.00;;;15.80;73.90;;;;;;5074371;28;20044;-72
2021/05/12 08:02:05;;;;;;;5.57;2.60;;;15.90;73.50;;;;;;5074126;28;20125;-73
2021/05/12 08:04:33;;;;;;;5.20;2.20;;;15.90;73.30;;;;;;5056962;28;20044;-72
2021/05/12 08:07:00;;;;;;;4.78;1.92;;;15.90;73.20;;;;;;5072428;28;20053;-73
2021/05/12 08:09:29;;;;;;;5.82;1.90;;;16.00;73.10;;;;;;5057478;28;20047;-73
2021/05/12 08:11:59;;;;;;;5.03;2.03;;;16.00;72.90;;;;;;5052725;28;20452;-73
2021/05/12 08:14:26;;;;;;;5.10;1.92;;;16.10;72.70;;;;;;5073821;28;20123;-73
2021/05/12 08:16:53;;;;;;;5.82;1.63;;;16.10;72.50;;;;;;5052881;28;20033;-73
2021/05/12 08:19:22;;;;;;;3.58;1.67;;;16.20;72.40;;;;;;5068415;28;20805;-73
2021/05/12 08:21:49;;;;;;;4.47;1.83;;;16.30;72.60;;;;;;5071454;28;20480;-72
2021/05/12 08:24:17;;;;;;;3.58;1.30;;;16.40;72.20;;;;;;5054756;28;20041;-73
2021/05/12 08:26:44;;;;;;;5.95;1.85;;;16.40;72.10;;;;;;5056434;28;20044;-72
2021/05/12 08:29:12;;;;;;;4.28;1.38;;;16.50;71.40;;;;;;5072809;28;20075;-72
2021/05/12 08:31:40;;;;;;;3.20;1.10;;;16.60;71.20;;;;;;5071353;28;20032;-73
2021/05/12 08:34:07;;;;;;;4.03;1.35;;;16.60;71.40;;;;;;5073893;28;20044;-73
2021/05/12 08:36:34;;;;;;;2.53;0.68;;;16.60;70.60;;;;;;5038604;28;20052;-72
2021/05/12 08:39:05;;;;;;;3.92;0.90;;;16.70;70.20;;;;;;5071236;28;20044;-72
2021/05/12 08:41:35;;;;;;;4.53;0.88;;;16.80;70.00;;;;;;5071642;28;20040;-72
2021/05/12 08:44:05;;;;;;;4.07;0.70;;;16.90;69.80;;;;;;5072055;28;20120;-72
2021/05/12 08:46:34;;;;;;;3.17;0.60;;;16.90;69.20;;;;;;5052299;28;20048;-73
2021/05/12 08:49:02;;;;;;;2.83;0.80;;;17.00;69.30;;;;;;5072278;28;20056;-72
2021/05/12 08:51:29;;;;;;;2.83;0.60;;;17.20;69.10;;;;;;5073144;28;20519;-72
2021/05/12 08:53:56;;;;;;;3.42;0.80;;;17.30;68.70;;;;;;5073327;28;20044;-72
2021/05/12 08:56:23;;;;;;;2.90;0.93;;;17.40;68.60;;;;;;5076837;28;20488;-73
2021/05/12 08:58:59;;;;;;;3.63;1.00;;;17.40;68.20;;;;;;5073481;28;20048;-72
2021/05/12 09:01:26;;;;;;;4.57;1.40;;;17.40;68.20;;;;;;5078509;28;20044;-73
2021/05/12 09:03:54;;;;;;;4.80;1.35;;;17.40;68.00;;;;;;5069511;28;20037;-73
2021/05/12 09:06:24;;;;;;;5.85;1.60;;;17.40;67.40;;;;;;5083207;28;20415;-72
2021/05/12 09:08:51;;;;;;;2.83;0.85;;;17.50;67.10;;;;;;5071357;28;20062;-72
2021/05/12 09:11:19;;;;;;;2.97;0.75;;;17.60;66.80;;;;;;5072245;28;20049;-71
2021/05/12 09:13:49;;;;;;;3.28;1.13;;;17.60;67.00;;;;;;5035294;28;20504;-73
2021/05/12 09:16:18;;;;;;;3.42;1.02;;;17.60;66.00;;;;;;5080177;28;20086;-74
2021/05/12 09:18:46;;;;;;;4.20;1.13;;;17.70;65.80;;;;;;5072972;28;20043;-73
2021/05/12 09:21:16;;;;;;;4.15;0.88;;;17.70;65.10;;;;;;5077101;28;20039;-72
2021/05/12 09:23:44;;;;;;;3.80;0.60;;;17.70;64.70;;;;;;5059480;28;20102;-73
2021/05/12 09:26:14;;;;;;;3.22;0.93;;;17.70;64.60;;;;;;5081195;28;20408;-73
2021/05/12 09:28:41;;;;;;;4.88;1.00;;;17.70;64.50;;;;;;5074451;28;20173;-73
2021/05/12 09:31:14;;;;;;;4.78;1.40;;;17.80;64.60;;;;;;5071952;28;20043;-73
2021/05/12 09:33:44;;;;;;;2.38;0.80;;;17.90;64.10;;;;;;5063770;28;20496;-73
2021/05/12 09:36:26;;;;;;;3.65;0.90;;;18.00;64.10;;;;;;5073424;28;20101;-73
2021/05/12 09:38:56;;;;;;;3.53;0.77;;;18.10;63.50;;;;;;5063574;28;20075;-72
2021/05/12 09:41:34;;;;;;;2.92;0.85;;;18.10;63.30;;;;;;5073567;28;20068;-73
2021/05/12 09:44:03;;;;;;;5.15;1.20;;;18.20;63.20;;;;;;5080512;28;20143;-74
2021/05/12 09:46:39;;;;;;;6.38;1.60;;;18.30;62.80;;;;;;5073132;28;20040;-73
2021/05/12 09:49:09;;;;;;;4.90;1.10;;;18.20;61.40;;;;;;5066350;28;20496;-73
2021/05/12 09:51:38;;;;;;;4.75;1.05;;;18.20;61.10;;;;;;5074010;28;20395;-73
2021/05/12 09:54:05;;;;;;;3.72;1.30;;;18.20;61.30;;;;;;5081510;28;20055;-73
2021/05/12 09:56:45;;;;;;;5.88;0.90;;;18.20;61.10;;;;;;5077294;28;20032;-73
2021/05/12 09:59:15;;;;;;;2.50;0.70;;;18.30;61.00;;;;;;5076790;28;20045;-72
2021/05/12 10:01:48;;;;;;;2.28;0.65;;;18.40;61.30;;;;;;5071093;28;20044;-73
2021/05/12 10:04:24;;;;;;;4.30;0.93;;;18.50;61.30;;;;;;5071900;28;20060;-73
2021/05/12 10:06:51;;;;;;;4.80;0.70;;;18.60;61.20;;;;;;5070714;28;20075;-73
2021/05/12 10:09:26;;;;;;;2.28;0.68;;;18.70;60.60;;;;;;5054934;28;20052;-74
2021/05/12 10:12:07;;;;;;;2.70;0.43;;;18.80;59.90;;;;;;5069114;28;20113;-73
2021/05/12 10:14:36;;;;;;;5.63;1.02;;;18.80;59.90;;;;;;5084494;28;20048;-74
2021/05/12 10:17:11;;;;;;;6.35;0.40;;;18.70;58.90;;;;;;5071741;28;20037;-72
2021/05/12 10:19:39;;;;;;;2.13;0.35;;;18.80;58.70;;;;;;5072711;28;20076;-72
2021/05/12 10:22:07;;;;;;;2.80;0.60;;;18.70;58.60;;;;;;5070096;28;20064;-72
2021/05/12 10:24:38;;;;;;;2.38;0.38;;;18.60;59.00;;;;;;5071052;28;20086;-71
2021/05/12 10:27:15;;;;;;;3.38;0.68;;;18.50;59.00;;;;;;5072662;28;20049;-71
2021/05/12 10:29:49;;;;;;;1.80;0.43;;;18.40;58.60;;;;;;5072643;28;20571;-71
2021/05/12 10:32:24;;;;;;;3.20;0.50;;;18.50;57.70;;;;;;5072437;28;20117;-72
2021/05/12 10:35:07;;;;;;;1.95;0.40;;;18.80;57.80;;;;;;5071221;28;20049;-73
2021/05/12 10:37:39;;;;;;;4.82;0.40;;;18.90;57.30;;;;;;5083063;28;20041;-74
2021/05/12 10:40:20;;;;;;;8.07;0.65;;;18.80;57.50;;;;;;5058563;28;20029;-74
2021/05/12 10:45:32;;;;;;;5.70;0.70;;;19.00;57.10;;;;;;5074334;28;20051;-72
2021/05/12 10:48:00;;;;;;;1.48;0.30;;;18.90;57.30;;;;;;5071301;28;20040;-72
2021/05/12 10:50:43;;;;;;;3.30;0.50;;;18.70;57.70;;;;;;5074684;28;20090;-72
2021/05/12 10:53:20;;;;;;;4.53;0.60;;;18.50;57.80;;;;;;5067123;28;20037;-72
2021/05/12 10:55:57;;;;;;;2.30;0.40;;;18.30;58.00;;;;;;5072955;28;20115;-72
2021/05/12 10:58:27;;;;;;;2.55;0.40;;;18.20;58.30;;;;;;5074349;28;20082;-72
2021/05/12 11:00:56;;;;;;;1.95;0.40;;;18.20;58.60;;;;;;5056287;28;20150;-72
2021/05/12 11:03:24;;;;;;;3.17;0.50;;;18.20;58.50;;;;;;5074251;28;20119;-72
2021/05/12 11:05:57;;;;;;;2.55;0.40;;;18.20;58.40;;;;;;5044158;28;20041;-72
2021/05/12 11:08:24;;;;;;;2.63;0.40;;;18.30;58.50;;;;;;5069444;28;20059;-72
2021/05/12 11:10:58;;;;;;;2.85;0.40;;;18.80;58.00;;;;;;5056187;28;20442;-72
2021/05/12 11:13:33;;;;;;;1.20;0.40;;;19.20;57.00;;;;;;5061688;28;20043;-72
2021/05/12 11:16:02;;;;;;;4.78;0.68;;;19.50;56.00;;;;;;5071688;28;20515;-73
2021/05/12 11:18:36;;;;;;;4.65;0.98;;;19.80;55.70;;;;;;5073291;28;20041;-73
2021/05/12 11:24:03;;;;;;;2.90;0.40;;;20.00;55.00;;;;;;5073183;28;20040;-74
2021/05/12 11:32:06;;;;;;;3.55;0.50;;;20.80;53.70;;;;;;5078184;28;20135;-73
2021/05/12 11:34:35;;;;;;;5.35;0.70;;;21.10;53.30;;;;;;5071481;28;20083;-73
2021/05/12 11:37:12;;;;;;;3.92;0.57;;;21.20;53.00;;;;;;5072955;28;20139;-73
2021/05/12 11:39:54;;;;;;;3.58;0.85;;;21.30;52.70;;;;;;5071561;28;20111;-73
2021/05/12 11:42:29;;;;;;;2.80;0.75;;;20.90;52.20;;;;;;5071328;28;20063;-73
2021/05/12 11:45:16;;;;;;;5.28;0.50;;;21.00;52.50;;;;;;5072559;28;20048;-73
2021/05/12 11:47:57;;;;;;;3.42;0.50;;;21.30;52.00;;;;;;5066472;28;20045;-73
2021/05/12 11:50:31;;;;;;;2.47;0.57;;;21.30;50.30;;;;;;5067503;28;20040;-72
2021/05/12 11:52:58;;;;;;;3.88;0.88;;;21.50;50.40;;;;;;5072738;28;20048;-73
2021/05/12 11:55:31;;;;;;;2.55;0.30;;;21.50;50.10;;;;;;5072352;28;20125;-73
2021/05/12 11:57:58;;;;;;;;;;;21.60;50.10;;;;;;5072620;28;20506;-73
2021/05/12 12:00:34;;;;;;;3.67;0.40;;;21.90;49.20;;;;;;5059677;28;19920;-73
2021/05/12 12:03:08;;;;;;;2.08;0.47;;;22.00;48.50;;;;;;5072980;28;20104;-74
2021/05/12 12:05:41;;;;;;;1.92;0.30;;;22.40;48.70;;;;;;5050715;28;20068;-73
2021/05/12 12:08:10;;;;;;;1.92;0.60;;;22.80;48.30;;;;;;5071094;28;20393;-73
2021/05/12 12:10:37;;;;;;;3.30;0.60;;;23.20;47.80;;;;;;5072518;28;20028;-73
2021/05/12 12:13:12;;;;;;;2.70;0.40;;;23.40;47.20;;;;;;5072959;28;20040;-73
2021/05/12 12:15:47;;;;;;;1.52;0.40;;;23.60;46.80;;;;;;5072458;28;20456;-73
2021/05/12 12:18:35;;;;;;;2.35;0.40;;;24.10;46.60;;;;;;5071583;28;20051;-75
2021/05/12 12:21:03;;;;;;;2.60;0.55;;;24.60;46.10;;;;;;5071574;28;20039;-74
2021/05/12 12:23:38;;;;;;;1.30;0.30;;;24.60;46.10;;;;;;5072767;28;20590;-75
2021/05/12 12:26:12;;;;;;;2.67;0.50;;;24.60;45.80;;;;;;5072235;28;20051;-74
2021/05/12 12:28:44;;;;;;;2.90;0.40;;;24.50;45.90;;;;;;5072420;28;20036;-74
2021/05/12 12:31:22;;;;;;;2.65;0.55;;;23.90;46.40;;;;;;5072190;28;20373;-76
2021/05/12 12:34:14;;;;;;;2.08;0.40;;;23.10;47.40;;;;;;5054661;28;20396;-74
2021/05/12 12:37:11;;;;;;;1.90;0.50;;;22.80;47.80;;;;;;5058271;28;20040;-75
2021/05/12 12:39:50;;;;;;;1.65;0.28;;;23.10;47.70;;;;;;5075204;28;20361;-73
2021/05/12 12:42:28;;;;;;;1.52;0.28;;;23.50;46.90;;;;;;5071221;28;20097;-73
2021/05/12 12:44:57;;;;;;;3.10;0.60;;;23.10;46.90;;;;;;5070999;28;20135;-74
2021/05/12 12:47:25;;;;;;;1.90;0.50;;;22.70;46.70;;;;;;5071177;28;20090;-73
2021/05/12 12:50:00;;;;;;;1.80;0.40;;;22.50;47.10;;;;;;5054422;28;20043;-73
2021/05/12 12:52:30;;;;;;;2.90;0.50;;;22.80;47.40;;;;;;5071998;28;20394;-73
2021/05/12 12:55:13;;;;;;;3.80;0.50;;;23.90;46.20;;;;;;5072065;28;20043;-73
2021/05/12 12:57:48;;;;;;;2.58;0.40;;;25.00;45.00;;;;;;5071697;28;20396;-71
2021/05/12 13:00:44;;;;;;;1.85;0.30;;;25.80;44.70;;;;;;5069337;28;20472;-71
2021/05/12 13:03:23;;;;;;;3.03;0.40;;;26.60;43.80;;;;;;5065805;28;20040;-72
2021/05/12 13:05:52;;;;;;;1.58;0.20;;;27.60;43.30;;;;;;5072262;28;20452;-72
2021/05/12 13:08:26;;;;;;;1.95;0.40;;;27.80;42.80;;;;;;5053428;28;20048;-71
2021/05/12 13:11:04;;;;;;;2.25;0.30;;;27.00;42.40;;;;;;5060572;28;20041;-71
2021/05/12 13:13:40;;;;;;;1.45;0.30;;;26.00;43.40;;;;;;5076075;28;20550;-71
2021/05/12 13:16:23;;;;;;;2.92;0.30;;;25.20;44.20;;;;;;5070786;28;20519;-71